ADDS METAR Data INFO
IDs: Format: Raw Decoded Include TAF

Data at: 2033 UTC 16 Dec 2017

KTMA 162015Z AUTO 00000KT 10SM CLR 15/M01 A3024 RMK AO2 T01451012
KTMA 161955Z AUTO 00000KT 10SM CLR 14/M01 A3024 RMK AO2 T01411013
KTMA 161935Z AUTO 00000KT 10SM CLR 14/M02 A3024 RMK AO2 T01391018
KTMA 161915Z AUTO 36003KT 10SM CLR 14/M02 A3025 RMK AO2 T01381018
KTMA 161855Z AUTO 00000KT 10SM CLR 14/M01 A3026 RMK AO2 T01371011
KTMA 161835Z AUTO 28004KT 10SM CLR 13/M02 A3026 RMK AO2 T01291017
KTMA 161815Z AUTO 32005KT 10SM CLR 13/M01 A3027 RMK AO2 T01311014
KTMA 161755Z AUTO 00000KT 10SM CLR 12/M01 A3027 RMK AO2 T01241013
KTMA 161735Z AUTO 32003KT 10SM CLR 12/M01 A3028 RMK AO2 T01211013
KTMA 161715Z AUTO 02003KT 10SM CLR 12/M01 A3029 RMK AO2 T01151009
KTMA 161655Z AUTO 07004KT 10SM CLR 11/M01 A3030 RMK AO2 T01071009
KTMA 161635Z AUTO 02004KT 10SM CLR 11/M01 A3031 RMK AO2 T01061009
KTMA 161615Z AUTO 01003KT 10SM CLR 10/M01 A3032 RMK AO2 T00961014
KTMA 161555Z AUTO 03005KT 10SM CLR 09/M02 A3032 RMK AO2 T00911018
KTMA 161535Z AUTO 02003KT 10SM CLR 09/M01 A3032 RMK AO2 T00851014
KTMA 161515Z AUTO 03005KT 10SM CLR 08/M02 A3032 RMK AO2 T00761020
KTMA 161455Z AUTO 06003KT 10SM CLR 07/M02 A3032 RMK AO2 T00681017
KTMA 161435Z AUTO 06003KT 10SM CLR 06/M02 A3031 RMK AO2 T00601016
KTMA 161415Z AUTO 36004KT 10SM CLR 05/M01 A3030 RMK AO2 T00501015
KTMA 161355Z AUTO 36003KT 10SM CLR 04/M02 A3031 RMK AO2 T00421017
KTMA 161335Z AUTO 01004KT 10SM CLR 03/M02 A3030 RMK AO2 T00341016
KTMA 161315Z AUTO 01005KT 10SM CLR 03/M01 A3029 RMK AO2 T00251012
KTMA 161255Z AUTO 00000KT 10SM CLR 02/M01 A3028 RMK AO2 T00161007
KTMA 161235Z AUTO 00000KT 10SM CLR 01/M01 A3028 RMK AO2 T00111011
KTMA 161215Z AUTO 00000KT 10SM CLR 01/M01 A3028 RMK AO2 T00101011
KTMA 161155Z AUTO 00000KT 10SM CLR 02/M01 A3027 RMK AO2 T00151012
KTMA 161135Z AUTO 35004KT 10SM CLR 02/M01 A3027 RMK AO2 T00161011
KTMA 161115Z AUTO 00000KT 10SM CLR 02/M01 A3026 RMK AO2 T00201012
KTMA 161055Z AUTO 00000KT 10SM CLR 02/M01 A3025 RMK AO2 T00211012
KTMA 161035Z AUTO 36003KT 10SM CLR 02/M01 A3025 RMK AO2 T00231011
KTMA 161015Z AUTO 00000KT 10SM CLR 02/M01 A3025 RMK AO2 T00221009
KTMA 160955Z AUTO 00000KT 10SM CLR 03/M01 A3024 RMK AO2 T00251008
KTMA 160935Z AUTO 00000KT 10SM CLR 03/M01 A3024 RMK AO2 T00321013
KTMA 160915Z AUTO 36003KT 10SM CLR 04/M01 A3023 RMK AO2 T00361012
KTMA 160855Z AUTO 36003KT 10SM CLR 04/M01 A3023 RMK AO2 T00401014
KTMA 160835Z AUTO 36005KT 10SM CLR 04/M01 A3024 RMK AO2 T00421013
KTMA 160815Z AUTO 35004KT 10SM CLR 05/M01 A3023 RMK AO2 T00451011
KTMA 160755Z AUTO 34005KT 10SM CLR 05/M01 A3023 RMK AO2 T00461010
KTMA 160735Z AUTO 35003KT 10SM CLR 05/M01 A3022 RMK AO2 T00481008
KTMA 160715Z AUTO 34003KT 10SM CLR 05/00 A3022 RMK AO2 T00461003
KTMA 160655Z AUTO 34004KT 10SM CLR 05/M01 A3021 RMK AO2 T00521011
KTMA 160635Z AUTO 36004KT 10SM CLR 06/M01 A3021 RMK AO2 T00551010
KTMA 160615Z AUTO 36004KT 10SM SCT120 06/M01 A3021 RMK AO2 T00591009
KTMA 160555Z AUTO 34008KT 10SM SCT120 06/M01 A3020 RMK AO2 T00621008
KTMA 160535Z AUTO 33005KT 10SM CLR 06/M01 A3021 RMK AO2 T00621007
KTMA 160515Z AUTO 33006KT 10SM SCT110 06/00 A3021 RMK AO2 T00611004
KTMA 160455Z AUTO 34007KT 10SM BKN110 07/00 A3021 RMK AO2 T00660000
KTMA 160435Z AUTO 33007KT 10SM BKN110 07/00 A3021 RMK AO2 T00680000
KTMA 160415Z AUTO 34006KT 10SM BKN120 07/00 A3022 RMK AO2 T00700001
KTMA 160355Z AUTO 33007KT 10SM SCT120 07/00 A3021 RMK AO2 T00710000
KTMA 160335Z AUTO 32008KT 10SM BKN110 07/00 A3022 RMK AO2 T00730003
KTMA 160315Z AUTO 33007KT 10SM BKN110 08/01 A3020 RMK AO2 T00750010
KTMA 160255Z AUTO 34006KT 10SM SCT120 08/01 A3018 RMK AO2 T00760008
KTMA 160235Z AUTO 33007KT 10SM SCT095 BKN120 08/01 A3018 RMK AO2 T00790010
KTMA 160215Z AUTO 33006KT 10SM OVC110 08/01 A3018 RMK AO2 T00800011
KTMA 160155Z AUTO 32011KT 10SM OVC110 08/01 A3017 RMK AO2 T00810013
KTMA 160135Z AUTO 33010KT 10SM SCT090 OVC110 09/03 A3017 RMK AO2 T00870026
KTMA 160115Z AUTO 31008KT 10SM SCT090 OVC110 09/03 A3017 RMK AO2 T00900025
KTMA 160055Z AUTO 31011KT 10SM OVC110 09/03 A3016 RMK AO2 T00920025
KTMA 160035Z AUTO 32008KT 10SM SCT100 OVC120 10/03 A3014 RMK AO2 T00950031
KTMA 160015Z AUTO 31011KT 10SM BKN110 10/04 A3015 RMK AO2 T00980036
KTMA 152355Z AUTO 30008KT 10SM SCT095 SCT110 10/04 A3015 RMK AO2 T01000037
KTMA 152335Z AUTO 29005KT 10SM BKN110 10/04 A3013 RMK AO2 T01010035
KTMA 152315Z AUTO 30005KT 10SM BKN120 10/03 A3011 RMK AO2 T01030034
KTMA 152255Z AUTO 28004KT 10SM BKN120 11/03 A3011 RMK AO2 T01050033
KTMA 152235Z AUTO 26004KT 10SM SCT120 11/03 A3008 RMK AO2 T01070030
KTMA 152215Z AUTO 27004KT 10SM OVC120 11/04 A3009 RMK AO2 T01100040
KTMA 152155Z AUTO 27004KT 10SM BKN120 11/05 A3009 RMK AO2 T01110049
KTMA 152135Z AUTO 27004KT 10SM SCT100 OVC120 11/04 A3008 RMK AO2 T01130041
KTMA 152115Z AUTO 28004KT 10SM OVC110 12/06 A3009 RMK AO2 T01150055
KTMA 152055Z AUTO 28005KT 10SM SCT090 OVC110 12/06 A3009 RMK AO2 T01150057
KTMA 152035Z AUTO 28004KT 10SM SCT090 OVC110 12/06 A3007 RMK AO2 T01150057
KTMA 152015Z AUTO 30005KT 10SM OVC110 12/06 A3008 RMK AO2 T01150055
KTMA 151955Z AUTO 29008KT 10SM OVC110 12/06 A3008 RMK AO2 T01150058
KTMA 151935Z AUTO 30005KT 10SM OVC110 12/06 A3007 RMK AO2 T01150060
KTMA 151915Z AUTO 30008KT 10SM OVC110 12/06 A3007 RMK AO2 T01160060
KTMA 151855Z AUTO 29007KT 10SM OVC110 12/06 A3007 RMK AO2 T01180058
KTMA 151835Z AUTO 28007KT 10SM OVC110 12/06 A3006 RMK AO2 T01210061
KTMA 151815Z AUTO 28006KT 10SM OVC120 12/06 A3006 RMK AO2 T01220060
KTMA 151755Z AUTO 28005KT 10SM OVC120 12/06 A3006 RMK AO2 T01220061
KTMA 151735Z AUTO 28004KT 10SM OVC120 12/06 A3006 RMK AO2 T01230062
KTMA 151715Z AUTO 30005KT 10SM BKN120 12/07 A3007 RMK AO2 T01230066
KTMA 151655Z AUTO 29004KT 10SM CLR 12/07 A3008 RMK AO2 T01210066
KTMA 151635Z AUTO 30007KT 10SM CLR 12/06 A3009 RMK AO2 T01210063
KTMA 151615Z AUTO 29005KT 10SM CLR 13/06 A3009 RMK AO2 T01260063
KTMA 151555Z AUTO 29006KT 10SM CLR 13/06 A3007 RMK AO2 T01260061
KTMA 151535Z AUTO 28004KT 10SM CLR 12/06 A3007 RMK AO2 T01210062
KTMA 151515Z AUTO 27004KT 10SM CLR 11/06 A3008 RMK AO2 T01120060
KTMA 151455Z AUTO 28005KT 10SM CLR 11/06 A3007 RMK AO2 T01080059
KTMA 151435Z AUTO 27004KT 10SM CLR 10/06 A3006 RMK AO2 T01000058
KTMA 151415Z AUTO 24003KT 10SM CLR 10/06 A3005 RMK AO2 T00970058
KTMA 151355Z AUTO 00000KT 10SM CLR 09/06 A3006 RMK AO2 T00930061
KTMA 151335Z AUTO 00000KT 10SM BKN120 08/08 A3004 RMK AO2 T00800080
KTMA 151315Z AUTO 00000KT 10SM BKN120 07/07 A3004 RMK AO2 T00690069
KTMA 151255Z AUTO 00000KT 10SM CLR 06/06 A3004 RMK AO2 T00600060
KTMA 151235Z AUTO 00000KT 10SM CLR 06/06 A3004 RMK AO2 T00560056
KTMA 151215Z AUTO 00000KT 10SM CLR 05/05 A3003 RMK AO2 T00450045
KTMA 151155Z AUTO 00000KT 10SM CLR 05/05 A3001 RMK AO2 T00460046
KTMA 151135Z AUTO 00000KT 10SM CLR A3002 RMK AO2
KTMA 151115Z AUTO 00000KT 10SM CLR A3002 RMK AO2
KTMA 151055Z AUTO 00000KT 10SM CLR A3002 RMK AO2
KTMA 151035Z AUTO 00000KT 10SM CLR A3001 RMK AO2
KTMA 151015Z AUTO 00000KT 7SM CLR 04/04 A3001 RMK AO2 T00400040
KTMA 150955Z AUTO 00000KT 10SM CLR A3001 RMK AO2
KTMA 150935Z AUTO 00000KT 10SM CLR 05/05 A3001 RMK AO2 T00460046
KTMA 150915Z AUTO 00000KT 10SM CLR 05/05 A3001 RMK AO2 T00500050
KTMA 150855Z AUTO 00000KT 10SM CLR 06/06 A3002 RMK AO2 T00550055
KTMA 150835Z AUTO 00000KT 10SM SCT120 06/06 A3001 RMK AO2 T00570057